Observation data for Northwest Lubbock on 05/26/2019      Previous  Date  Next       Current Mesonet Observations  Soil Data  Daily Summary Page  Observations in Plain Language
KLBW 260500Z 17011G16KT 22/18 A2996 RMK A01 T02180177  RH  082%=      5-min Rain = 0
KLBW 260505Z 17008KT 22/18 A2996 RMK A01 T02170176  RH  082%=      5-min Rain = 0
KLBW 260510Z 17010G15KT 22/18 A2996 RMK A01 T02170176  RH  082%=      5-min Rain = 0
KLBW 260515Z 17010KT 22/18 A2996 RMK A01 T02160176  RH  082%=      5-min Rain = 0
KLBW 260520Z 17008G13KT 22/18 A2996 RMK A01 T02150175  RH  082%=      5-min Rain = 0
KLBW 260525Z 17009KT 22/18 A2996 RMK A01 T02150175  RH  082%=      5-min Rain = 0
KLBW 260530Z 17009KT 21/18 A2996 RMK A01 T02140175  RH  083%=      5-min Rain = 0
KLBW 260535Z 17008KT 21/18 A2996 RMK A01 T02130175  RH  083%=      5-min Rain = 0
KLBW 260540Z 17008KT 21/18 A2996 RMK A01 T02120175  RH  084%=      5-min Rain = 0
KLBW 260545Z 17007KT 21/18 A2996 RMK A01 T02110175  RH  084%=      5-min Rain = 0
KLBW 260550Z 17008G13KT 21/18 A2996 RMK A01 T02110175  RH  085%=      5-min Rain = 0
KLBW 260555Z 17007KT 21/18 A2996 RMK A01 T02100175  RH  085%=      5-min Rain = 0
KLBW 260600Z 17007KT 21/18 A2996 RMK A01 T02090175  RH  085%=      5-min Rain = 0
KLBW 260605Z 17007G12KT 21/18 A2996 RMK A01 T02080175  RH  086%=      5-min Rain = 0
KLBW 260610Z 17007KT 21/18 A2996 RMK A01 T02070175  RH  087%=      5-min Rain = 0
KLBW 260615Z 17007KT 21/18 A2996 RMK A01 T02060176  RH  087%=      5-min Rain = 0
KLBW 260620Z 17006KT 21/18 A2996 RMK A01 T02050176  RH  088%=      5-min Rain = 0
KLBW 260625Z 17006KT 20/18 A2996 RMK A01 T02040176  RH  089%=      5-min Rain = 0
KLBW 260630Z 17006KT 20/18 A2996 RMK A01 T02030176  RH  089%=      5-min Rain = 0
KLBW 260635Z 17006KT 20/18 A2996 RMK A01 T02020176  RH  090%=      5-min Rain = 0
KLBW 260640Z 17007KT 20/18 A2996 RMK A01 T02020177  RH  090%=      5-min Rain = 0
KLBW 260645Z 16007KT 20/18 A2996 RMK A01 T02020177  RH  090%=      5-min Rain = 0
KLBW 260650Z 17007KT 20/18 A2996 RMK A01 T02020177  RH  090%=      5-min Rain = 0
KLBW 260655Z 16007KT 20/18 A2996 RMK A01 T02010178  RH  091%=      5-min Rain = 0
KLBW 260700Z 16006KT 20/18 A2996 RMK A01 T02000178  RH  091%=      5-min Rain = 0
KLBW 260705Z 16005KT 20/18 A2996 RMK A01 T02000178  RH  092%=      5-min Rain = 0
KLBW 260710Z 15005KT 20/18 A2996 RMK A01 T01980178  RH  093%=      5-min Rain = 0
KLBW 260715Z 14004KT 20/18 A2996 RMK A01 T01970178  RH  094%=      5-min Rain = 0
KLBW 260720Z 14005KT 20/18 A2996 RMK A01 T01960178  RH  094%=      5-min Rain = 0
KLBW 260725Z 14005KT 20/18 A2996 RMK A01 T01950179  RH  095%=      5-min Rain = 0
KLBW 260730Z 14005KT 20/18 A2996 RMK A01 T01950180  RH  096%=      5-min Rain = 0
KLBW 260735Z 14006KT 20/18 A2996 RMK A01 T01950180  RH  096%=      5-min Rain = 0
KLBW 260740Z 15006KT 20/18 A2996 RMK A01 T01960181  RH  096%=      5-min Rain = 0
KLBW 260745Z 15007KT 20/18 A2996 RMK A01 T01960181  RH  096%=      5-min Rain = 0
KLBW 260750Z 14007KT 20/18 A2996 RMK A01 T01980182  RH  095%=      5-min Rain = 0
KLBW 260755Z 14007G12KT 20/18 A2996 RMK A01 T01980181  RH  095%=      5-min Rain = 0
KLBW 260800Z 13006KT 20/18 A2996 RMK A01 T01970181  RH  095%=      5-min Rain = 0
KLBW 260805Z 13006KT 20/18 A2996 RMK A01 T01960180  RH  096%=      5-min Rain = 0
KLBW 260810Z 12006KT 20/18 A2996 RMK A01 T01950180  RH  096%=      5-min Rain = 0
KLBW 260815Z 12006KT 19/18 A2996 RMK A01 T01930180  RH  098%=      5-min Rain = 0
KLBW 260820Z 13005KT 19/18 A2996 RMK A01 T01910181  RH  099%=      5-min Rain = 0
KLBW 260825Z 12005KT 19/18 A2996 RMK A01 T01910182  RH  100%=      5-min Rain = 0
KLBW 260830Z 12004KT 19/18 A2996 RMK A01 T01890181  RH  100%=      5-min Rain = 0
KLBW 260835Z 12003KT 19/18 A2996 RMK A01 T01880180  RH  100%=      5-min Rain = 0
KLBW 260840Z 12003KT 19/18 A2996 RMK A01 T01870179  RH  100%=      5-min Rain = 0
KLBW 260845Z 13003KT 19/18 A2996 RMK A01 T01860178  RH  100%=      5-min Rain = 0
KLBW 260850Z 12003KT 19/18 A2997 RMK A01 T01850177  RH  100%=      5-min Rain = 0
KLBW 260855Z 12003KT 18/18 A2997 RMK A01 T01840176  RH  100%=      5-min Rain = 0
KLBW 260900Z 11004KT 18/18 A2997 RMK A01 T01830175  RH  100%=      5-min Rain = 0
KLBW 260905Z 13004KT 18/18 A2997 RMK A01 T01830175  RH  100%=      5-min Rain = 0
KLBW 260910Z 12004KT 18/18 A2997 RMK A01 T01830175  RH  100%=      5-min Rain = 0
KLBW 260915Z 11005KT 18/18 A2997 RMK A01 T01840176  RH  100%=      5-min Rain = 0
KLBW 260920Z 12005KT 18/18 A2997 RMK A01 T01840176  RH  100%=      5-min Rain = 0
KLBW 260925Z 12005KT 18/18 A2997 RMK A01 T01840176  RH  100%=      5-min Rain = 0
KLBW 260930Z 12005KT 18/18 A2997 RMK A01 T01840176  RH  100%=      5-min Rain = 0
KLBW 260935Z 13006KT 19/18 A2997 RMK A01 T01850177  RH  100%=      5-min Rain = 0
KLBW 260940Z 13006KT 19/18 A2997 RMK A01 T01860178  RH  100%=      5-min Rain = 0
KLBW 260945Z 13007KT 19/18 A2997 RMK A01 T01870178  RH  100%=      5-min Rain = 0
KLBW 260950Z 13006KT 19/18 A2997 RMK A01 T01880180  RH  100%=      5-min Rain = 0
KLBW 260955Z 13007KT 19/18 A2997 RMK A01 T01900182  RH  100%=      5-min Rain = 0
KLBW 261000Z 13007KT 19/18 A2997 RMK A01 T01920183  RH  100%=      5-min Rain = 0
KLBW 261005Z 14007KT 19/19 A2997 RMK A01 T01930185  RH  100%=      5-min Rain = 0
KLBW 261010Z 14006KT 19/19 A2997 RMK A01 T01940186  RH  100%=      5-min Rain = 0
KLBW 261015Z 14007KT 20/19 A2997 RMK A01 T01960187  RH  100%=      5-min Rain = 0
KLBW 261020Z 14007KT 20/19 A2997 RMK A01 T01970188  RH  100%=      5-min Rain = 0
KLBW 261025Z 15007KT 20/19 A2997 RMK A01 T01980189  RH  100%=      5-min Rain = 0
KLBW 261030Z 15007KT 20/19 A2997 RMK A01 T01990190  RH  100%=      5-min Rain = 0
KLBW 261035Z 15008KT 20/19 A2997 RMK A01 T01990191  RH  100%=      5-min Rain = 0
KLBW 261040Z 15008KT 20/19 A2997 RMK A01 T02000191  RH  100%=      5-min Rain = 0
KLBW 261045Z 14007G12KT 20/19 A2997 RMK A01 T02000192  RH  100%=      5-min Rain = 0
KLBW 261050Z 14007KT 20/19 A2997 RMK A01 T02000191  RH  100%=      5-min Rain = 0
KLBW 261055Z 14008KT 20/19 A2997 RMK A01 T01990191  RH  100%=      5-min Rain = 0
KLBW 261100Z 14007KT 20/19 A2997 RMK A01 T01990190  RH  100%=      5-min Rain = 0
KLBW 261105Z 14007KT 20/19 A2998 RMK A01 T01980190  RH  100%=      5-min Rain = 0
KLBW 261110Z 15007KT 20/19 A2998 RMK A01 T01980189  RH  100%=      5-min Rain = 0
KLBW 261115Z 15006KT 20/19 A2998 RMK A01 T01980189  RH  100%=      5-min Rain = 0
KLBW 261120Z 14006KT 20/19 A2998 RMK A01 T01980189  RH  100%=      5-min Rain = 0
KLBW 261125Z 14007KT 20/19 A2998 RMK A01 T01980190  RH  100%=      5-min Rain = 0
KLBW 261130Z 14007KT 20/19 A2999 RMK A01 T01990190  RH  100%=      5-min Rain = 0
KLBW 261135Z 14007KT 20/19 A2999 RMK A01 T01990190  RH  100%=      5-min Rain = 0
KLBW 261140Z 14006KT 20/19 A2999 RMK A01 T01990190  RH  100%=      5-min Rain = 0
KLBW 261145Z 15007KT 20/19 A2999 RMK A01 T01990190  RH  100%=      5-min Rain = 0
KLBW 261150Z 15007KT 20/19 A2999 RMK A01 T02000191  RH  100%=      5-min Rain = 0
KLBW 261155Z 15007KT 20/19 A2999 RMK A01 T02010192  RH  100%=      5-min Rain = 0
KLBW 261200Z 14008G13KT 20/19 A2999 RMK A01 T02020193  RH  100%=      5-min Rain = 0
KLBW 261205Z 15007KT 20/19 A2999 RMK A01 T02030194  RH  100%=      5-min Rain = 0
KLBW 261210Z 14007KT 20/19 A2999 RMK A01 T02020193  RH  100%=      5-min Rain = 0
KLBW 261215Z 14007KT 20/19 A2999 RMK A01 T02010192  RH  100%=      5-min Rain = 0
KLBW 261220Z 14008KT 20/19 A2999 RMK A01 T02010192  RH  100%=      5-min Rain = 0
KLBW 261225Z 13007KT 20/19 A2999 RMK A01 T02010192  RH  100%=      5-min Rain = 0
KLBW 261230Z 13007KT 20/19 A2999 RMK A01 T02010192  RH  100%=      5-min Rain = 0
KLBW 261235Z 13008KT 20/19 A2999 RMK A01 T02000191  RH  100%=      5-min Rain = 0
KLBW 261240Z 13008KT 20/19 A2999 RMK A01 T02000191  RH  100%=      5-min Rain = 0
KLBW 261245Z 14008KT 20/19 A2999 RMK A01 T02000191  RH  100%=      5-min Rain = 0
KLBW 261250Z 14007KT 20/19 A2999 RMK A01 T02010192  RH  100%=      5-min Rain = 0
KLBW 261255Z 14008KT 20/19 A30 RMK A01 T02010192  RH  100%=      5-min Rain = 0
KLBW 261300Z 14008KT 20/19 A2999 RMK A01 T02020193  RH  100%=      5-min Rain = 0
KLBW 261305Z 15011G16KT 20/20 A2999 RMK A01 T02040195  RH  100%=      5-min Rain = 0
KLBW 261310Z 15010G15KT 21/20 A2999 RMK A01 T02060196  RH  100%=      5-min Rain = 0
KLBW 261315Z 15011G17KT 21/20 A2999 RMK A01 T02070197  RH  099%=      5-min Rain = 0
KLBW 261320Z 15010G15KT 21/20 A2999 RMK A01 T02070196  RH  099%=      5-min Rain = 0
KLBW 261325Z 15011G16KT 21/20 A2999 RMK A01 T02080196  RH  098%=      5-min Rain = 0
KLBW 261330Z 16011G17KT 21/19 A2999 RMK A01 T02080194  RH  097%=      5-min Rain = 0
KLBW 261335Z 15010KT 21/20 A2999 RMK A01 T02090195  RH  097%=      5-min Rain = 0
KLBW 261340Z 15010G15KT 21/19 A2999 RMK A01 T02090194  RH  096%=      5-min Rain = 0
KLBW 261345Z 14010G16KT 21/19 A2999 RMK A01 T02090194  RH  096%=      5-min Rain = 0
KLBW 261350Z 15011G17KT 21/19 A2999 RMK A01 T02090194  RH  096%=      5-min Rain = 0
KLBW 261355Z 15011G16KT 21/19 A30 RMK A01 T02100193  RH  095%=      5-min Rain = 0
KLBW 261400Z 16011KT 21/19 A30 RMK A01 T02110194  RH  095%=      5-min Rain = 0
KLBW 261405Z 16008G14KT 21/19 A30 RMK A01 T02130194  RH  094%=      5-min Rain = 0
KLBW 261410Z 16012G20KT 21/19 A3001 RMK A01 T02130193  RH  093%=      5-min Rain = 0
KLBW 261415Z 16011G17KT 21/19 A3001 RMK A01 T02140192  RH  092%=      5-min Rain = 0
KLBW 261420Z 17011G16KT 21/19 A3001 RMK A01 T02130191  RH  092%=      5-min Rain = 0
KLBW 261425Z 17010G16KT 21/19 A3002 RMK A01 T02130191  RH  092%=      5-min Rain = 0
KLBW 261430Z 17013G19KT 21/19 A3002 RMK A01 T02120189  RH  092%=      5-min Rain = 0
KLBW 261435Z 17010G17KT 21/19 A3002 RMK A01 T02130191  RH  092%=      5-min Rain = 0
KLBW 261440Z 17012G17KT 21/19 A3002 RMK A01 T02120190  RH  092%=      5-min Rain = 0
KLBW 261445Z 17012KT 21/19 A3002 RMK A01 T02120189  RH  091%=      5-min Rain = 0
KLBW 261450Z 17011G18KT 21/19 A3002 RMK A01 T02120188  RH  091%=      5-min Rain = 0
KLBW 261455Z 17011G16KT 21/19 A3002 RMK A01 T02120189  RH  092%=      5-min Rain = 0
KLBW 261500Z 17012G18KT 21/19 A3002 RMK A01 T02120189  RH  091%=      5-min Rain = 0
KLBW 261505Z 16011G16KT 21/19 A3002 RMK A01 T02120189  RH  091%=      5-min Rain = 0
KLBW 261510Z 16010KT 21/19 A3001 RMK A01 T02130190  RH  092%=      5-min Rain = 0
KLBW 261515Z 16010G15KT 21/19 A3001 RMK A01 T02140191  RH  092%=      5-min Rain = 0
KLBW 261520Z 15010G16KT 21/19 A3001 RMK A01 T02140190  RH  091%=      5-min Rain = 0
KLBW 261525Z 16011KT 22/19 A3001 RMK A01 T02150190  RH  091%=      5-min Rain = 0
KLBW 261530Z 16010KT 22/19 A3001 RMK A01 T02150189  RH  090%=      5-min Rain = 0
KLBW 261535Z 16010G15KT 22/19 A3001 RMK A01 T02150189  RH  090%=      5-min Rain = 0
KLBW 261540Z 16010G15KT 22/19 A3001 RMK A01 T02160189  RH  090%=      5-min Rain = 0
KLBW 261545Z 16011G17KT 22/19 A3001 RMK A01 T02160189  RH  089%=      5-min Rain = 0
KLBW 261550Z 16009KT 22/19 A3001 RMK A01 T02170190  RH  090%=      5-min Rain = 0
KLBW 261555Z 16009KT 22/19 A3001 RMK A01 T02170191  RH  090%=      5-min Rain = 0
KLBW 261600Z 16009G15KT 22/19 A3001 RMK A01 T02180190  RH  089%=      5-min Rain = 0
KLBW 261605Z 15011KT 22/19 A30 RMK A01 T02190190  RH  088%=      5-min Rain = 0
KLBW 261610Z 16009G14KT 22/19 A30 RMK A01 T02200190  RH  088%=      5-min Rain = 0
KLBW 261615Z 16009G15KT 22/19 A30 RMK A01 T02200189  RH  088%=      5-min Rain = 0
KLBW 261620Z 16011KT 22/19 A30 RMK A01 T02200189  RH  087%=      5-min Rain = 0
KLBW 261625Z 16012G17KT 22/19 A3001 RMK A01 T02200188  RH  087%=      5-min Rain = 0
KLBW 261630Z 17011G16KT 22/19 A3001 RMK A01 T02200188  RH  087%=      5-min Rain = 0
KLBW 261635Z 15008KT 22/19 A3001 RMK A01 T02210190  RH  087%=      5-min Rain = 0
KLBW 261640Z 14009G14KT 22/19 A3001 RMK A01 T02180192  RH  090%=      5-min Rain = 0
KLBW 261645Z 14009KT 22/19 A3001 RMK A01 T02160193  RH  092%=      5-min Rain = 0
KLBW 261650Z 15010KT 22/19 A3001 RMK A01 T02160193  RH  091%=      5-min Rain = 0
KLBW 261655Z 16009KT 22/19 A3001 RMK A01 T02190193  RH  090%=      5-min Rain = 0
KLBW 261700Z 16012G18KT 22/19 A3001 RMK A01 T02220190  RH  087%=      5-min Rain = 0
KLBW 261705Z 17011G18KT 22/19 A3001 RMK A01 T02220187  RH  085%=      5-min Rain = 0
KLBW 261710Z 16013G20KT 22/18 A3001 RMK A01 T02230184  RH  083%=      5-min Rain = 0
KLBW 261715Z 17012G18KT 22/18 A3001 RMK A01 T02230182  RH  082%=      5-min Rain = 0
KLBW 261720Z 16012G17KT 22/18 A3001 RMK A01 T02240182  RH  081%=      5-min Rain = 0
KLBW 261725Z 17012G19KT 22/18 A3001 RMK A01 T02240181  RH  081%=      5-min Rain = 0
KLBW 261730Z 17011G17KT 22/18 A3001 RMK A01 T02240181  RH  081%=      5-min Rain = 0
KLBW 261735Z 16012G17KT 23/18 A3001 RMK A01 T02250181  RH  080%=      5-min Rain = 0
KLBW 261740Z 16012G17KT 23/18 A3001 RMK A01 T02250182  RH  081%=      5-min Rain = 0
KLBW 261745Z 16012KT 23/18 A3001 RMK A01 T02250182  RH  081%=      5-min Rain = 0
KLBW 261750Z 14009KT 22/19 A3001 RMK A01 T02240186  RH  083%=      5-min Rain = 0
KLBW 261755Z 15009G14KT 22/19 A30 RMK A01 T02230188  RH  085%=      5-min Rain = 0
KLBW 261800Z 16008KT 22/19 A30 RMK A01 T02240186  RH  084%=      5-min Rain = 0
KLBW 261805Z 15011KT 23/18 A30 RMK A01 T02250184  RH  082%=      5-min Rain = 0
KLBW 261810Z 16012G18KT 22/18 A30 RMK A01 T02240182  RH  081%=      5-min Rain = 0
KLBW 261815Z 16010G16KT 23/18 A30 RMK A01 T02250183  RH  081%=      5-min Rain = 0
KLBW 261820Z 16012G17KT 23/18 A30 RMK A01 T02260182  RH  081%=      5-min Rain = 0
KLBW 261825Z 17012G17KT 23/18 A30 RMK A01 T02260183  RH  081%=      5-min Rain = 0
KLBW 261830Z 17012G18KT 23/18 A3001 RMK A01 T02260182  RH  081%=      5-min Rain = 0
KLBW 261835Z 18012G17KT 23/18 A3001 RMK A01 T02250182  RH  081%=      5-min Rain = 0
KLBW 261840Z 17013G20KT 22/18 A3001 RMK A01 T02240181  RH  081%=      5-min Rain = 0
KLBW 261845Z 17012G17KT 23/18 A3001 RMK A01 T02250182  RH  081%=      5-min Rain = 0
KLBW 261850Z 17011G16KT 23/18 A3001 RMK A01 T02260183  RH  081%=      5-min Rain = 0
KLBW 261855Z 17012G18KT 23/18 A3002 RMK A01 T02270183  RH  080%=      5-min Rain = 0
KLBW 261900Z 17011G16KT 23/18 A3002 RMK A01 T02280183  RH  080%=      5-min Rain = 0
KLBW 261905Z 17013KT 23/18 A3002 RMK A01 T02280183  RH  080%=      5-min Rain = 0
KLBW 261910Z 17011KT 23/18 A3001 RMK A01 T02280184  RH  080%=      5-min Rain = 0
KLBW 261915Z 16011G16KT 23/19 A3001 RMK A01 T02290185  RH  081%=      5-min Rain = 0
KLBW 261920Z 16011G17KT 23/18 A3002 RMK A01 T02280184  RH  081%=      5-min Rain = 0
KLBW 261925Z 16012G18KT 23/19 A3002 RMK A01 T02270185  RH  081%=      5-min Rain = 0
KLBW 261930Z 16011KT 23/19 A3001 RMK A01 T02280185  RH  081%=      5-min Rain = 0
KLBW 261935Z 16010G15KT 23/19 A3001 RMK A01 T02300187  RH  081%=      5-min Rain = 0
KLBW 261940Z 16013G18KT 23/19 A3001 RMK A01 T02300185  RH  080%=      5-min Rain = 0
KLBW 261945Z 16010G18KT 23/19 A3001 RMK A01 T02300186  RH  081%=      5-min Rain = 0
KLBW 261950Z 16011G17KT 23/19 A3001 RMK A01 T02300186  RH  080%=      5-min Rain = 0
KLBW 261955Z 16009G15KT 23/19 A30 RMK A01 T02290187  RH  081%=      5-min Rain = 0
KLBW 262000Z 17012G18KT 23/19 A30 RMK A01 T02300187  RH  081%=      5-min Rain = 0
KLBW 262005Z 16011KT 23/19 A30 RMK A01 T02310187  RH  080%=      5-min Rain = 0
KLBW 262010Z 16013KT 23/19 A2999 RMK A01 T02330187  RH  080%=      5-min Rain = 0
KLBW 262015Z 16011G16KT 23/19 A2999 RMK A01 T02340188  RH  080%=      5-min Rain = 0
KLBW 262020Z 15010G16KT 24/19 A2999 RMK A01 T02350189  RH  080%=      5-min Rain = 0
KLBW 262025Z 14011G16KT 24/19 A2998 RMK A01 T02350188  RH  079%=      5-min Rain = 0
KLBW 262030Z 15012KT 23/19 A2998 RMK A01 T02330186  RH  079%=      5-min Rain = 0
KLBW 262035Z 15012G18KT 23/19 A2998 RMK A01 T02320187  RH  080%=      5-min Rain = 0
KLBW 262040Z 15012G19KT 23/19 A2997 RMK A01 T02310186  RH  080%=      5-min Rain = 0
KLBW 262045Z 14010G18KT 23/19 A2997 RMK A01 T02310188  RH  081%=      5-min Rain = 0
KLBW 262050Z 16011G16KT 23/19 A2997 RMK A01 T02320188  RH  080%=      5-min Rain = 0
KLBW 262055Z 15013G21KT 23/19 A2997 RMK A01 T02330187  RH  080%=      5-min Rain = 0
KLBW 262100Z 14015G20KT 23/19 A2997 RMK A01 T02340186  RH  079%=      5-min Rain = 0
KLBW 262105Z 15012G20KT 24/19 A2996 RMK A01 T02350187  RH  078%=      5-min Rain = 0
KLBW 262110Z 14011G16KT 24/19 A2996 RMK A01 T02360187  RH  078%=      5-min Rain = 0
KLBW 262115Z 14012G18KT 24/19 A2996 RMK A01 T02360187  RH  078%=      5-min Rain = 0
KLBW 262120Z 14012G20KT 24/19 A2995 RMK A01 T02360187  RH  078%=      5-min Rain = 0
KLBW 262125Z 14013G20KT 24/19 A2995 RMK A01 T02360186  RH  078%=      5-min Rain = 0
KLBW 262130Z 14013G23KT 24/19 A2994 RMK A01 T02360186  RH  078%=      5-min Rain = 0
KLBW 262135Z 14011KT 24/19 A2994 RMK A01 T02360187  RH  078%=      5-min Rain = 0
KLBW 262140Z 14014G19KT 24/19 A2994 RMK A01 T02360186  RH  077%=      5-min Rain = 0
KLBW 262145Z 15012G17KT 24/19 A2995 RMK A01 T02360186  RH  078%=      5-min Rain = 0
KLBW 262150Z 14011G18KT 24/19 A2994 RMK A01 T02350187  RH  078%=      5-min Rain = 0
KLBW 262155Z 14014KT 24/19 A2993 RMK A01 T02350186  RH  078%=      5-min Rain = 0
KLBW 262200Z 14015G21KT 24/18 A2993 RMK A01 T02360184  RH  077%=      5-min Rain = 0
KLBW 262205Z 14013G18KT 24/19 A2993 RMK A01 T02360186  RH  078%=      5-min Rain = 0
KLBW 262210Z 14013G18KT 24/19 A2993 RMK A01 T02370187  RH  078%=      5-min Rain = 0
KLBW 262215Z 14012G19KT 24/19 A2993 RMK A01 T02370189  RH  079%=      5-min Rain = 0
KLBW 262220Z 15010G16KT 24/19 A2994 RMK A01 T02360190  RH  079%=      5-min Rain = 0
KLBW 262225Z 14013G18KT 24/19 A2993 RMK A01 T02360188  RH  079%=      5-min Rain = 0
KLBW 262230Z 14014G20KT 24/19 A2992 RMK A01 T02360188  RH  078%=      5-min Rain = 0
KLBW 262235Z 14015G23KT 24/19 A2991 RMK A01 T02370188  RH  078%=      5-min Rain = 0
KLBW 262240Z 13016G24KT 24/19 A299 RMK A01 T02380188  RH  078%=      5-min Rain = 0
KLBW 262245Z 13016G24KT 24/19 A2988 RMK A01 T02400187  RH  076%=      5-min Rain = 0
KLBW 262250Z 13014G25KT 24/19 A2987 RMK A01 T02410187  RH  076%=      5-min Rain = 0
KLBW 262255Z 13015G20KT 24/19 A2988 RMK A01 T02420188  RH  076%=      5-min Rain = 0
KLBW 262300Z 13015G23KT 24/19 A2988 RMK A01 T02440187  RH  075%=      5-min Rain = 0
KLBW 262305Z 14015G22KT 25/19 A2988 RMK A01 T02490188  RH  073%=      5-min Rain = 0
KLBW 262310Z 14017G25KT 25/19 A2989 RMK A01 T02510187  RH  072%=      5-min Rain = 0
KLBW 262315Z 14016G24KT 25/19 A299 RMK A01 T02520187  RH  071%=      5-min Rain = 0
KLBW 262320Z 14016G24KT 25/19 A299 RMK A01 T02480186  RH  072%=      5-min Rain = 0
KLBW 262325Z 15015G23KT 25/19 A2991 RMK A01 T02480186  RH  072%=      5-min Rain = 0
KLBW 262330Z 15015G21KT 25/19 A2991 RMK A01 T02500185  RH  071%=      5-min Rain = 0
KLBW 262335Z 15014G21KT 25/19 A299 RMK A01 T02530187  RH  071%=      5-min Rain = 0
KLBW 262340Z 15017G25KT 25/18 A2991 RMK A01 T02490184  RH  071%=      5-min Rain = 0
KLBW 262345Z 15017G24KT 25/18 A299 RMK A01 T02450183  RH  072%=      5-min Rain = 0
KLBW 262350Z 15017G25KT 24/18 A299 RMK A01 T02430182  RH  073%=      5-min Rain = 0
KLBW 262355Z 15012G20KT 24/18 A299 RMK A01 T02430184  RH  074%=      5-min Rain = 0
KLBW 270000Z 15014G21KT 24/18 A299 RMK A01 T02440184  RH  073%=      5-min Rain = 0
KLBW 270005Z 15015G22KT 24/18 A2989 RMK A01 T02440183  RH  073%=      5-min Rain = 0
KLBW 270010Z 15015G26KT 25/18 A2989 RMK A01 T02450184  RH  073%=      5-min Rain = 0
KLBW 270015Z 15016G25KT 25/18 A2989 RMK A01 T02470183  RH  071%=      5-min Rain = 0
KLBW 270020Z 15018G25KT 25/18 A2989 RMK A01 T02480182  RH  071%=      5-min Rain = 0
KLBW 270025Z 15017G25KT 25/18 A2989 RMK A01 T02460181  RH  071%=      5-min Rain = 0
KLBW 270030Z 15016G23KT 24/18 A2989 RMK A01 T02430180  RH  072%=      5-min Rain = 0
KLBW 270035Z 15015G20KT 24/18 A2988 RMK A01 T02430181  RH  072%=      5-min Rain = 0
KLBW 270040Z 15015G22KT 24/18 A2988 RMK A01 T02420180  RH  072%=      5-min Rain = 0
KLBW 270045Z 15015G21KT 24/18 A2987 RMK A01 T02420180  RH  072%=      5-min Rain = 0
KLBW 270050Z 15016G23KT 24/18 A2987 RMK A01 T02420179  RH  071%=      5-min Rain = 0
KLBW 270055Z 15016G23KT 24/18 A2987 RMK A01 T02400177  RH  072%=      5-min Rain = 0
KLBW 270100Z 15017G24KT 24/18 A2987 RMK A01 T02380177  RH  072%=      5-min Rain = 0
KLBW 270105Z 15015G23KT 24/18 A2987 RMK A01 T02380177  RH  072%=      5-min Rain = 0
KLBW 270110Z 15016G25KT 24/18 A2987 RMK A01 T02370175  RH  072%=      5-min Rain = 0
KLBW 270115Z 15017G24KT 24/17 A2987 RMK A01 T02370174  RH  071%=      5-min Rain = 0
KLBW 270120Z 15016G23KT 24/17 A2986 RMK A01 T02370174  RH  071%=      5-min Rain = 0
KLBW 270125Z 14013G20KT 24/18 A2986 RMK A01 T02350176  RH  073%=      5-min Rain = 0
KLBW 270130Z 14013G19KT 23/18 A2987 RMK A01 T02340175  RH  073%=      5-min Rain = 0
KLBW 270135Z 15012G18KT 23/18 A2987 RMK A01 T02330175  RH  074%=      5-min Rain = 0
KLBW 270140Z 15015G22KT 23/18 A2987 RMK A01 T02320175  RH  074%=      5-min Rain = 0
KLBW 270145Z 15013G18KT 23/18 A2987 RMK A01 T02310175  RH  074%=      5-min Rain = 0
KLBW 270150Z 14015G20KT 23/18 A2987 RMK A01 T02300175  RH  075%=      5-min Rain = 0
KLBW 270155Z 15015G21KT 23/18 A2986 RMK A01 T02300175  RH  075%=      5-min Rain = 0
KLBW 270200Z 15014G19KT 23/18 A2986 RMK A01 T02290175  RH  076%=      5-min Rain = 0
KLBW 270205Z 15013G19KT 23/18 A2986 RMK A01 T02270175  RH  076%=      5-min Rain = 0
KLBW 270210Z 15012G19KT 23/18 A2987 RMK A01 T02270175  RH  076%=      5-min Rain = 0
KLBW 270215Z 15011G17KT 23/18 A2987 RMK A01 T02270175  RH  076%=      5-min Rain = 0
KLBW 270220Z 15013G18KT 23/18 A2988 RMK A01 T02270175  RH  077%=      5-min Rain = 0
KLBW 270225Z 15012G17KT 23/18 A2988 RMK A01 T02280175  RH  076%=      5-min Rain = 0
KLBW 270230Z 15011G17KT 23/18 A2988 RMK A01 T02260175  RH  077%=      5-min Rain = 0
KLBW 270235Z 15013G19KT 23/18 A2988 RMK A01 T02260175  RH  077%=      5-min Rain = 0
KLBW 270240Z 15012G18KT 23/17 A2988 RMK A01 T02250174  RH  077%=      5-min Rain = 0
KLBW 270245Z 15011G16KT 22/17 A2989 RMK A01 T02240174  RH  077%=      5-min Rain = 0
KLBW 270250Z 15013G19KT 23/17 A2989 RMK A01 T02250174  RH  077%=      5-min Rain = 0
KLBW 270255Z 15011G18KT 22/17 A2989 RMK A01 T02240174  RH  077%=      5-min Rain = 0
KLBW 270300Z 15012G19KT 23/17 A2989 RMK A01 T02250173  RH  076%=      5-min Rain = 0
KLBW 270305Z 15011G16KT 23/17 A2989 RMK A01 T02250173  RH  076%=      5-min Rain = 0
KLBW 270310Z 15011KT 22/17 A2989 RMK A01 T02240173  RH  077%=      5-min Rain = 0
KLBW 270315Z 15011G16KT 22/17 A2989 RMK A01 T02240173  RH  077%=      5-min Rain = 0
KLBW 270320Z 15014G21KT 23/17 A2988 RMK A01 T02250172  RH  076%=      5-min Rain = 0
KLBW 270325Z 15012KT 23/17 A2989 RMK A01 T02250172  RH  076%=      5-min Rain = 0
KLBW 270330Z 16012G17KT 23/17 A2989 RMK A01 T02250172  RH  076%=      5-min Rain = 0
KLBW 270335Z 16013KT 22/17 A2989 RMK A01 T02240171  RH  076%=      5-min Rain = 0
KLBW 270340Z 17011G17KT 22/17 A2989 RMK A01 T02240171  RH  076%=      5-min Rain = 0
KLBW 270345Z 16011G19KT 22/17 A2989 RMK A01 T02230171  RH  076%=      5-min Rain = 0
KLBW 270350Z 16013KT 22/17 A2989 RMK A01 T02220171  RH  076%=      5-min Rain = 0
KLBW 270355Z 16012G19KT 22/17 A2989 RMK A01 T02230170  RH  076%=      5-min Rain = 0
KLBW 270400Z 16012G19KT 22/17 A2989 RMK A01 T02220170  RH  076%=      5-min Rain = 0
KLBW 270405Z 15013G19KT 22/17 A2988 RMK A01 T02220169  RH  076%=      5-min Rain = 0
KLBW 270410Z 16012G17KT 22/17 A2989 RMK A01 T02220169  RH  076%=      5-min Rain = 0
KLBW 270415Z 15010KT 22/17 A2989 RMK A01 T02200169  RH  077%=      5-min Rain = 0
KLBW 270420Z 16013G18KT 22/17 A2989 RMK A01 T02210170  RH  076%=      5-min Rain = 0
KLBW 270425Z 16011G16KT 22/17 A2989 RMK A01 T02200169  RH  077%=      5-min Rain = 0
KLBW 270430Z 15012G21KT 22/17 A2989 RMK A01 T02200169  RH  077%=      5-min Rain = 0
KLBW 270435Z 16011G18KT 22/17 A2989 RMK A01 T02190169  RH  077%=      5-min Rain = 0
KLBW 270440Z 16010G15KT 22/17 A2989 RMK A01 T02180169  RH  078%=      5-min Rain = 0
KLBW 270445Z 16010G15KT 22/17 A2989 RMK A01 T02180169  RH  078%=      5-min Rain = 0
KLBW 270450Z 16009KT 22/17 A2989 RMK A01 T02170169  RH  078%=      5-min Rain = 0
KLBW 270455Z 16011G17KT 22/17 A2989 RMK A01 T02170170  RH  078%=      5-min Rain = 0

Page generated in 0.0091 seconds.